NJE46P ESGJ-EDDF
Flight info
| Callsign | NJE46P |
|---|---|
| Flight time | N/A |
| Altitude | 43000 |
| Route | DEVNI DCT NEXIL M736 PEROM M864 BUMIL DCT HLZ DCT ALOSI DCT KERAX |
| Aircraft | C25C/M-SDE2E3FGHRWXY/LB1 |
Departure
| Time | 2026-04-25 18:24 |
|---|---|
| Airport | Jönköping Airport (ESGJ) |
Arrival
| Time | N/A |
|---|---|
| Airport | Frankfurt Main Airport (EDDF) |
| Time | Latitude | Longitude | Altitude | Speed | Heading |
|---|---|---|---|---|---|
| 2026-04-25 18:08 | 57.75122 | 14.07252 | 740 ft | 0 kts | 280° |
| 2026-04-25 18:20 | 57.75165 | 14.07213 | 739 ft | 15 kts | 343° |
| 2026-04-25 18:21 | 57.75202 | 14.07068 | 740 ft | 13 kts | 283° |
| 2026-04-25 18:21 | 57.75238 | 14.06902 | 740 ft | 15 kts | 295° |
| 2026-04-25 18:21 | 57.75278 | 14.06734 | 739 ft | 13 kts | 294° |
| 2026-04-25 18:21 | 57.75304 | 14.06592 | 738 ft | 6 kts | 246° |
| 2026-04-25 18:22 | 57.75239 | 14.06554 | 737 ft | 23 kts | 195° |
| 2026-04-25 18:22 | 57.75094 | 14.06468 | 738 ft | 39 kts | 198° |
| 2026-04-25 18:22 | 57.74862 | 14.06336 | 738 ft | 8 kts | 272° |
| 2026-04-25 18:22 | 57.74867 | 14.06324 | 739 ft | 1 kts | 359° |
| 2026-04-25 18:23 | 57.74890 | 14.06341 | 739 ft | 0 kts | 21° |
| 2026-04-25 18:23 | 57.75033 | 14.06430 | 737 ft | 63 kts | 18° |
| 2026-04-25 18:24 | 57.75741 | 14.06890 | 948 ft | 140 kts | 19° |
| 2026-04-25 18:24 | 57.76728 | 14.07685 | 1892 ft | 166 kts | 20° |
| 2026-04-25 18:24 | 57.77826 | 14.08640 | 3054 ft | 194 kts | 20° |
| 2026-04-25 18:24 | 57.79128 | 14.09729 | 4256 ft | 208 kts | 19° |
| 2026-04-25 18:25 | 57.80474 | 14.10759 | 5697 ft | 209 kts | 18° |
| 2026-04-25 18:25 | 57.81907 | 14.11321 | 7041 ft | 215 kts | 2° |
| 2026-04-25 18:25 | 57.83407 | 14.11636 | 8408 ft | 221 kts | 7° |
| 2026-04-25 18:25 | 57.84964 | 14.11676 | 9783 ft | 225 kts | 348° |
| 2026-04-25 18:26 | 57.86424 | 14.10632 | 11123 ft | 229 kts | 329° |
| 2026-04-25 18:26 | 57.87602 | 14.08560 | 12525 ft | 235 kts | 309° |
| 2026-04-25 18:26 | 57.88271 | 14.05748 | 13845 ft | 243 kts | 288° |
| 2026-04-25 18:26 | 57.88291 | 14.02484 | 14965 ft | 259 kts | 264° |
| 2026-04-25 18:27 | 57.87534 | 13.99360 | 16016 ft | 279 kts | 239° |
| 2026-04-25 18:27 | 57.85965 | 13.97021 | 17121 ft | 300 kts | 210° |
| 2026-04-25 18:27 | 57.83863 | 13.96383 | 18222 ft | 320 kts | 180° |
| 2026-04-25 18:27 | 57.81617 | 13.96970 | 19216 ft | 329 kts | 172° |
| 2026-04-25 18:28 | 57.79336 | 13.97899 | 20208 ft | 338 kts | 170° |
| 2026-04-25 18:28 | 57.76982 | 13.98113 | 20912 ft | 348 kts | 191° |
| 2026-04-25 18:28 | 57.74603 | 13.97172 | 21731 ft | 353 kts | 200° |
| 2026-04-25 18:29 | 57.69672 | 13.95342 | 23423 ft | 372 kts | 192° |
| 2026-04-25 18:29 | 57.67063 | 13.94795 | 24057 ft | 378 kts | 192° |
| 2026-04-25 18:30 | 57.59099 | 13.92566 | 25925 ft | 395 kts | 194° |
| 2026-04-25 18:30 | 57.56337 | 13.91834 | 26524 ft | 402 kts | 194° |
| 2026-04-25 18:30 | 57.53576 | 13.91098 | 27089 ft | 407 kts | 194° |
| 2026-04-25 18:30 | 57.50757 | 13.90322 | 27654 ft | 413 kts | 194° |
| 2026-04-25 18:31 | 57.47921 | 13.89543 | 28188 ft | 418 kts | 194° |
| 2026-04-25 18:31 | 57.45017 | 13.88757 | 28846 ft | 420 kts | 194° |
| 2026-04-25 18:31 | 57.42100 | 13.87974 | 29524 ft | 422 kts | 195° |
| 2026-04-25 18:31 | 57.39215 | 13.87194 | 30128 ft | 423 kts | 195° |
| 2026-04-25 18:32 | 57.36290 | 13.86399 | 30724 ft | 423 kts | 195° |
| 2026-04-25 18:32 | 57.33377 | 13.85618 | 31332 ft | 421 kts | 195° |
| 2026-04-25 18:32 | 57.30507 | 13.84843 | 31908 ft | 421 kts | 195° |
| 2026-04-25 18:32 | 57.27601 | 13.84061 | 32489 ft | 420 kts | 195° |
| 2026-04-25 18:33 | 57.24707 | 13.83281 | 32710 ft | 429 kts | 195° |
| 2026-04-25 18:33 | 57.21731 | 13.82480 | 33186 ft | 430 kts | 194° |
| 2026-04-25 18:33 | 57.18757 | 13.81693 | 33757 ft | 429 kts | 194° |
| 2026-04-25 18:33 | 57.15826 | 13.80914 | 34227 ft | 427 kts | 195° |
| 2026-04-25 18:34 | 57.12873 | 13.80122 | 34723 ft | 425 kts | 194° |
| 2026-04-25 18:34 | 57.09980 | 13.79348 | 35209 ft | 423 kts | 194° |
| 2026-04-25 18:34 | 57.07060 | 13.78576 | 35695 ft | 422 kts | 194° |
| 2026-04-25 18:34 | 57.04166 | 13.77807 | 36162 ft | 420 kts | 194° |
| 2026-04-25 18:35 | 57.01276 | 13.77040 | 36627 ft | 418 kts | 194° |
| 2026-04-25 18:35 | 56.98387 | 13.76277 | 37077 ft | 416 kts | 194° |
| 2026-04-25 18:35 | 56.95542 | 13.75523 | 37511 ft | 415 kts | 194° |
| 2026-04-25 18:35 | 56.92667 | 13.74766 | 37943 ft | 413 kts | 194° |
| 2026-04-25 18:36 | 56.89891 | 13.74035 | 38346 ft | 412 kts | 194° |
| 2026-04-25 18:36 | 56.87048 | 13.73287 | 38701 ft | 410 kts | 194° |
| 2026-04-25 18:36 | 56.84216 | 13.72543 | 39009 ft | 409 kts | 194° |
| 2026-04-25 18:36 | 56.81389 | 13.71801 | 39314 ft | 409 kts | 194° |
| 2026-04-25 18:37 | 56.78574 | 13.71063 | 39617 ft | 408 kts | 194° |
| 2026-04-25 18:37 | 56.75793 | 13.70339 | 39908 ft | 407 kts | 194° |
| 2026-04-25 18:37 | 56.73004 | 13.69609 | 40196 ft | 407 kts | 194° |
| 2026-04-25 18:37 | 56.70202 | 13.68879 | 40488 ft | 406 kts | 194° |
| 2026-04-25 18:38 | 56.67399 | 13.68150 | 40778 ft | 405 kts | 194° |
| 2026-04-25 18:38 | 56.64609 | 13.67425 | 41066 ft | 405 kts | 194° |
| 2026-04-25 18:38 | 56.61848 | 13.66707 | 41351 ft | 404 kts | 194° |
| 2026-04-25 18:38 | 56.59056 | 13.65985 | 41636 ft | 403 kts | 194° |
| 2026-04-25 18:39 | 56.56271 | 13.65264 | 41917 ft | 403 kts | 194° |
| 2026-04-25 18:39 | 56.53491 | 13.64546 | 42194 ft | 402 kts | 194° |
| 2026-04-25 18:39 | 56.50744 | 13.63839 | 42463 ft | 402 kts | 194° |
| 2026-04-25 18:39 | 56.47960 | 13.63120 | 42722 ft | 402 kts | 194° |
| 2026-04-25 18:40 | 56.42409 | 13.61688 | 42824 ft | 413 kts | 194° |
| 2026-04-25 18:40 | 56.36600 | 13.60203 | 42842 ft | 424 kts | 193° |
| 2026-04-25 18:41 | 56.30703 | 13.58695 | 42848 ft | 434 kts | 193° |
| 2026-04-25 18:41 | 56.24669 | 13.57164 | 42853 ft | 443 kts | 193° |
| 2026-04-25 18:42 | 56.20571 | 13.56122 | 42857 ft | 447 kts | 193° |
| 2026-04-25 18:42 | 56.12308 | 13.54029 | 42857 ft | 455 kts | 193° |
| 2026-04-25 18:43 | 56.05981 | 13.52436 | 42857 ft | 460 kts | 193° |
| 2026-04-25 18:43 | 55.99675 | 13.50859 | 42856 ft | 447 kts | 193° |
| 2026-04-25 18:44 | 55.93672 | 13.49351 | 42840 ft | 435 kts | 193° |
| 2026-04-25 18:44 | 55.87673 | 13.47846 | 42835 ft | 437 kts | 193° |
| 2026-04-25 18:45 | 55.81644 | 13.46352 | 42836 ft | 437 kts | 193° |
| 2026-04-25 18:45 | 55.75612 | 13.44853 | 42843 ft | 438 kts | 193° |
| 2026-04-25 18:46 | 55.69564 | 13.43356 | 42844 ft | 439 kts | 193° |
| 2026-04-25 18:46 | 55.63485 | 13.41857 | 42846 ft | 440 kts | 193° |
| 2026-04-25 18:47 | 55.57432 | 13.40369 | 42848 ft | 441 kts | 194° |
| 2026-04-25 18:47 | 55.51378 | 13.38884 | 42849 ft | 441 kts | 194° |
| 2026-04-25 18:48 | 55.45273 | 13.37395 | 42848 ft | 440 kts | 194° |
| 2026-04-25 18:48 | 55.39232 | 13.35922 | 42847 ft | 439 kts | 194° |
| 2026-04-25 18:49 | 55.33160 | 13.34448 | 42849 ft | 437 kts | 194° |
| 2026-04-25 18:49 | 55.27146 | 13.32994 | 42849 ft | 436 kts | 194° |
| 2026-04-25 18:50 | 55.21302 | 13.30858 | 42862 ft | 422 kts | 208° |
| 2026-04-25 18:50 | 55.18698 | 13.28672 | 42866 ft | 412 kts | 219° |
| 2026-04-25 18:50 | 55.16339 | 13.25954 | 42863 ft | 407 kts | 223° |
| 2026-04-25 18:51 | 55.13228 | 13.22180 | 42875 ft | 409 kts | 221° |
| 2026-04-25 18:51 | 55.07276 | 13.16756 | 42885 ft | 417 kts | 214° |
| 2026-04-25 18:52 | 55.01367 | 13.11092 | 42892 ft | 417 kts | 217° |
| 2026-04-25 18:52 | 54.97090 | 13.07117 | 42890 ft | 420 kts | 216° |
| 2026-04-25 18:53 | 54.91911 | 13.02289 | 42897 ft | 421 kts | 217° |
| 2026-04-25 18:53 | 54.85914 | 12.96684 | 42900 ft | 423 kts | 216° |
| 2026-04-25 18:54 | 54.78970 | 12.90234 | 42904 ft | 424 kts | 216° |